Time;durP1;ratioP1;P1;durP2;ratioP2;P2;SDS_P1;SDS_P2;PMS_P1;PMS_P2;Temp;Humidity;BMP_temperature;BMP_pressure;BME280_temperature;BME280_humidity;BME280_pressure;Samples;Min_cycle;Max_cycle;Signal;HPM_P1;HPM_P2
2021/12/26 00:01:19;;;;;;;;;30.00;27.75;;;;;;;;5043757;28;45436;-65
2021/12/26 00:03:44;;;;;;;;;31.25;26.50;;;;;;;;5050270;28;45604;-66
2021/12/26 00:06:12;;;;;;;;;31.75;26.75;;;;;;;;5042592;28;45506;-66
2021/12/26 00:08:38;;;;;;;;;25.25;24.75;;;;;;;;5050985;28;46050;-66
2021/12/26 00:11:04;;;;;;;;;22.50;22.50;;;;;;;;5030881;28;45467;-66
2021/12/26 00:13:30;;;;;;;;;25.25;23.25;;;;;;;;5049802;28;48389;-66
2021/12/26 00:15:56;;;;;;;;;24.00;23.00;;;;;;;;5032049;28;46137;-64
2021/12/26 00:18:21;;;;;;;;;22.00;21.50;;;;;;;;5050900;28;45627;-65
2021/12/26 00:20:47;;;;;;;;;21.25;19.00;;;;;;;;5049209;28;45845;-65
2021/12/26 00:23:13;;;;;;;;;22.75;19.25;;;;;;;;5033420;28;47171;-65
2021/12/26 00:25:38;;;;;;;;;23.25;23.25;;;;;;;;5033216;28;45763;-65
2021/12/26 00:28:04;;;;;;;;;22.25;20.75;;;;;;;;5032371;28;45832;-65
2021/12/26 00:30:29;;;;;;;;;23.50;22.00;;;;;;;;5051319;28;45457;-65
2021/12/26 00:32:54;;;;;;;;;23.75;21.75;;;;;;;;5049297;28;46579;-65
2021/12/26 00:35:20;;;;;;;;;24.25;23.00;;;;;;;;5028337;28;45426;-66
2021/12/26 00:37:46;;;;;;;;;24.75;23.75;;;;;;;;5042179;28;45401;-65
2021/12/26 00:40:12;;;;;;;;;24.75;21.50;;;;;;;;5049177;28;45487;-66
2021/12/26 00:42:38;;;;;;;;;23.75;20.00;;;;;;;;5039783;28;45751;-65
2021/12/26 00:45:04;;;;;;;;;30.75;28.75;;;;;;;;5047948;28;45528;-64
2021/12/26 00:47:30;;;;;;;;;22.00;20.25;;;;;;;;5043652;28;45929;-65
2021/12/26 00:49:56;;;;;;;;;27.25;27.25;;;;;;;;5044708;28;45614;-65
2021/12/26 00:52:21;;;;;;;;;24.00;24.00;;;;;;;;5043352;28;45827;-64
2021/12/26 00:54:46;;;;;;;;;30.00;24.50;;;;;;;;5052435;28;45486;-63
2021/12/26 00:57:12;;;;;;;;;25.00;25.00;;;;;;;;5055450;28;45331;-66
2021/12/26 00:59:37;;;;;;;;;33.75;26.25;;;;;;;;5052587;28;45330;-65
2021/12/26 01:02:02;;;;;;;;;33.75;28.00;;;;;;;;5048860;28;45599;-65
2021/12/26 01:04:28;;;;;;;;;31.00;26.00;;;;;;;;5029369;28;45961;-65
2021/12/26 01:06:53;;;;;;;;;26.50;26.50;;;;;;;;5044058;28;45376;-65
2021/12/26 01:09:24;;;;;;;;;25.75;24.00;;;;;;;;5037653;28;45394;-65
2021/12/26 01:11:53;;;;;;;;;23.00;23.00;;;;;;;;5051390;28;45846;-65
2021/12/26 01:14:25;;;;;;;;;25.75;24.00;;;;;;;;5042053;28;46467;-66
2021/12/26 01:17:00;;;;;;;;;26.25;25.25;;;;;;;;5032529;28;45493;-64
2021/12/26 01:19:32;;;;;;;;;27.25;24.75;;;;;;;;5029168;28;45733;-66
2021/12/26 01:21:58;;;;;;;;;24.25;23.00;;;;;;;;5044320;28;45879;-64
2021/12/26 01:24:23;;;;;;;;;23.75;20.50;;;;;;;;5049502;28;45441;-64
2021/12/26 01:26:49;;;;;;;;;23.25;22.25;;;;;;;;5034189;28;45457;-65
2021/12/26 01:29:14;;;;;;;;;26.75;23.00;;;;;;;;5047241;28;45500;-65
2021/12/26 01:31:39;;;;;;;;;29.75;24.75;;;;;;;;5037132;28;47619;-66
2021/12/26 01:34:05;;;;;;;;;27.75;22.75;;;;;;;;5021032;28;45461;-66
2021/12/26 01:36:31;;;;;;;;;21.75;20.50;;;;;;;;5046404;28;45485;-66
2021/12/26 01:38:59;;;;;;;;;30.50;28.75;;;;;;;;5032776;28;45540;-66
2021/12/26 01:41:25;;;;;;;;;27.25;23.25;;;;;;;;5045775;28;46348;-66
2021/12/26 01:43:56;;;;;;;;;25.25;23.25;;;;;;;;5026087;28;46144;-65
2021/12/26 01:46:21;;;;;;;;;24.75;19.50;;;;;;;;5030343;28;45520;-66
2021/12/26 01:48:46;;;;;;;;;29.00;29.00;;;;;;;;5033311;28;45610;-65
2021/12/26 01:51:11;;;;;;;;;31.50;29.00;;;;;;;;5029345;28;48509;-65
2021/12/26 01:53:39;;;;;;;;;25.50;24.00;;;;;;;;5032396;28;46228;-64
2021/12/26 01:56:05;;;;;;;;;28.75;27.75;;;;;;;;5035494;28;45580;-64
2021/12/26 01:58:31;;;;;;;;;23.50;20.75;;;;;;;;5050559;28;45523;-63
2021/12/26 02:01:01;;;;;;;;;27.25;26.25;;;;;;;;5035594;28;48475;-65
2021/12/26 02:03:26;;;;;;;;;28.75;23.50;;;;;;;;5054756;28;45429;-64
2021/12/26 02:05:51;;;;;;;;;27.25;24.00;;;;;;;;5034099;28;46146;-65
2021/12/26 02:08:17;;;;;;;;;25.00;25.00;;;;;;;;5031848;28;46124;-65
2021/12/26 02:10:42;;;;;;;;;22.00;18.25;;;;;;;;5051011;28;46072;-66
2021/12/26 02:13:08;;;;;;;;;25.25;21.75;;;;;;;;5036028;28;45558;-65
2021/12/26 02:15:33;;;;;;;;;22.50;22.50;;;;;;;;5035676;28;45719;-66
2021/12/26 02:17:59;;;;;;;;;29.00;24.75;;;;;;;;5034848;28;45597;-65
2021/12/26 02:20:52;;;;;;;;;24.75;23.50;;;;;;;;5031881;28;47524;-66
2021/12/26 02:23:24;;;;;;;;;21.50;20.50;;;;;;;;5032463;28;45687;-65
2021/12/26 02:28:33;;;;;;;;;29.75;24.50;;;;;;;;5031431;28;45449;-65
2021/12/26 02:30:59;;;;;;;;;24.75;21.00;;;;;;;;5030550;28;48782;-64
2021/12/26 02:33:24;;;;;;;;;23.25;23.25;;;;;;;;5034383;28;45428;-66
2021/12/26 02:35:49;;;;;;;;;28.75;22.75;;;;;;;;5033389;28;45357;-66
2021/12/26 02:38:15;;;;;;;;;24.50;24.50;;;;;;;;5032921;28;45540;-67
2021/12/26 02:40:41;;;;;;;;;26.75;22.50;;;;;;;;5029039;28;46547;-66
2021/12/26 02:43:07;;;;;;;;;24.00;18.50;;;;;;;;5030095;28;45712;-67
2021/12/26 02:45:33;;;;;;;;;24.50;24.00;;;;;;;;5033190;28;45476;-66
2021/12/26 02:47:58;;;;;;;;;25.75;21.75;;;;;;;;5032476;28;45422;-66
2021/12/26 02:50:25;;;;;;;;;24.00;22.00;;;;;;;;5029807;28;45696;-66
2021/12/26 02:52:51;;;;;;;;;29.25;24.00;;;;;;;;5032543;28;45568;-66
2021/12/26 02:55:17;;;;;;;;;28.00;25.75;;;;;;;;5024311;28;45506;-65
2021/12/26 02:57:47;;;;;;;;;25.00;23.25;;;;;;;;5031744;28;45597;-66
2021/12/26 03:00:14;;;;;;;;;31.75;30.25;;;;;;;;5031869;28;47337;-67
2021/12/26 03:02:43;;;;;;;;;25.00;24.00;;;;;;;;5032425;28;46893;-66
2021/12/26 03:05:09;;;;;;;;;25.00;24.25;;;;;;;;5032021;28;45493;-66
2021/12/26 03:07:34;;;;;;;;;23.00;21.75;;;;;;;;5031202;28;45584;-66
2021/12/26 03:10:00;;;;;;;;;31.75;26.50;;;;;;;;5031040;28;45673;-66
2021/12/26 03:12:31;;;;;;;;;20.25;20.25;;;;;;;;5034370;28;45323;-66
2021/12/26 03:14:56;;;;;;;;;19.25;19.00;;;;;;;;5027578;28;45419;-67
2021/12/26 03:17:22;;;;;;;;;23.00;22.00;;;;;;;;5025905;28;45365;-67
2021/12/26 03:19:47;;;;;;;;;25.50;23.75;;;;;;;;5030939;28;45952;-67
2021/12/26 03:22:14;;;;;;;;;21.75;21.75;;;;;;;;5035835;28;46296;-66
2021/12/26 03:24:42;;;;;;;;;26.00;26.00;;;;;;;;5035555;28;45378;-67
2021/12/26 03:27:07;;;;;;;;;31.00;25.00;;;;;;;;5052122;28;45336;-66
2021/12/26 03:29:33;;;;;;;;;21.50;20.50;;;;;;;;5050511;28;48185;-66
2021/12/26 03:31:58;;;;;;;;;21.50;18.75;;;;;;;;5050211;28;45532;-67
2021/12/26 03:34:23;;;;;;;;;27.00;25.25;;;;;;;;5035264;28;45408;-66
2021/12/26 03:36:52;;;;;;;;;22.75;20.25;;;;;;;;5043072;28;45484;-67
2021/12/26 03:39:17;;;;;;;;;26.25;25.00;;;;;;;;5043224;28;45637;-66
2021/12/26 03:41:43;;;;;;;;;24.25;22.50;;;;;;;;5041516;28;45500;-67
2021/12/26 03:44:08;;;;;;;;;23.00;21.25;;;;;;;;5043848;28;45460;-66
2021/12/26 03:46:33;;;;;;;;;26.00;24.25;;;;;;;;5049104;28;46031;-66
2021/12/26 03:49:03;;;;;;;;;23.75;23.75;;;;;;;;5031451;28;47726;-65
2021/12/26 03:51:29;;;;;;;;;25.00;23.75;;;;;;;;5051067;28;45648;-67
2021/12/26 03:53:54;;;;;;;;;25.50;24.00;;;;;;;;5032930;28;45483;-65
2021/12/26 03:56:19;;;;;;;;;28.50;26.50;;;;;;;;5030810;28;45414;-65
2021/12/26 03:58:45;;;;;;;;;28.50;25.75;;;;;;;;5050257;28;45669;-65
2021/12/26 04:01:10;;;;;;;;;27.00;23.00;;;;;;;;5050375;28;45364;-65
2021/12/26 04:03:35;;;;;;;;;25.50;25.50;;;;;;;;5052912;28;45446;-65
2021/12/26 04:06:00;;;;;;;;;16.50;16.50;;;;;;;;5032381;28;45556;-65
2021/12/26 04:08:26;;;;;;;;;25.50;24.50;;;;;;;;5049885;28;46325;-65
2021/12/26 04:10:51;;;;;;;;;23.50;22.00;;;;;;;;5052075;28;45551;-65
2021/12/26 04:13:16;;;;;;;;;25.50;24.00;;;;;;;;5050507;28;45378;-66
2021/12/26 04:15:42;;;;;;;;;24.50;22.50;;;;;;;;5034395;28;45688;-66
2021/12/26 04:18:07;;;;;;;;;25.00;23.75;;;;;;;;5051924;28;46400;-65
2021/12/26 04:20:33;;;;;;;;;24.25;23.75;;;;;;;;5049841;28;45385;-66
2021/12/26 04:22:58;;;;;;;;;22.00;20.75;;;;;;;;5050206;28;45472;-65
2021/12/26 04:25:24;;;;;;;;;28.00;26.75;;;;;;;;5049971;28;45419;-65
2021/12/26 04:27:49;;;;;;;;;25.00;23.00;;;;;;;;5034853;28;47765;-67
2021/12/26 04:30:15;;;;;;;;;29.50;25.75;;;;;;;;5032357;28;45426;-66
2021/12/26 04:32:41;;;;;;;;;26.25;25.75;;;;;;;;5031249;28;45662;-67
2021/12/26 04:35:07;;;;;;;;;24.75;23.75;;;;;;;;5046623;28;45620;-66
2021/12/26 04:37:34;;;;;;;;;21.00;20.50;;;;;;;;5046689;28;47914;-66
2021/12/26 04:39:59;;;;;;;;;23.50;22.75;;;;;;;;5027640;28;45517;-65
2021/12/26 04:42:24;;;;;;;;;27.50;25.25;;;;;;;;5028670;28;45477;-65
2021/12/26 04:44:51;;;;;;;;;29.00;23.00;;;;;;;;5028261;28;45708;-66
2021/12/26 04:47:17;;;;;;;;;30.50;24.00;;;;;;;;5034719;28;48697;-66
2021/12/26 04:49:42;;;;;;;;;22.50;22.50;;;;;;;;5036036;28;45438;-66
2021/12/26 04:52:07;;;;;;;;;21.75;21.25;;;;;;;;5054435;28;45400;-65
2021/12/26 04:54:32;;;;;;;;;23.00;23.00;;;;;;;;5051788;28;45442;-65
2021/12/26 04:56:58;;;;;;;;;24.75;22.25;;;;;;;;5029294;28;47575;-64
2021/12/26 04:59:23;;;;;;;;;28.50;24.50;;;;;;;;5036953;28;46402;-64
2021/12/26 05:01:48;;;;;;;;;21.50;20.50;;;;;;;;5028553;28;45465;-64
2021/12/26 05:04:14;;;;;;;;;24.50;24.50;;;;;;;;5045938;28;45739;-64
2021/12/26 05:06:39;;;;;;;;;21.50;21.50;;;;;;;;5046373;28;45789;-64
2021/12/26 05:09:04;;;;;;;;;21.50;21.00;;;;;;;;5051279;28;45393;-65
2021/12/26 05:11:30;;;;;;;;;26.75;26.50;;;;;;;;5052584;28;45564;-65
2021/12/26 05:13:55;;;;;;;;;26.25;24.50;;;;;;;;5051983;28;45536;-65
2021/12/26 05:16:20;;;;;;;;;22.50;22.50;;;;;;;;5055903;28;46040;-65
2021/12/26 05:18:45;;;;;;;;;27.00;25.75;;;;;;;;5055418;28;45396;-66
2021/12/26 05:21:10;;;;;;;;;26.50;24.00;;;;;;;;5037454;28;45414;-67
2021/12/26 05:23:36;;;;;;;;;26.50;23.75;;;;;;;;5053786;28;45493;-67
2021/12/26 05:26:01;;;;;;;;;22.00;22.00;;;;;;;;5030302;28;47788;-66
2021/12/26 05:28:26;;;;;;;;;20.50;19.75;;;;;;;;5054699;28;45491;-66
2021/12/26 05:30:52;;;;;;;;;26.25;21.25;;;;;;;;5047106;28;45409;-66
2021/12/26 05:33:17;;;;;;;;;31.75;27.25;;;;;;;;5051886;28;45397;-66
2021/12/26 05:35:42;;;;;;;;;25.25;24.25;;;;;;;;5036293;28;48728;-66
2021/12/26 05:38:08;;;;;;;;;23.50;21.75;;;;;;;;5053766;28;45460;-66
2021/12/26 05:40:33;;;;;;;;;25.25;24.25;;;;;;;;5036188;28;45378;-66
2021/12/26 05:42:58;;;;;;;;;22.75;21.75;;;;;;;;5036368;28;45548;-66
2021/12/26 05:45:23;;;;;;;;;29.00;26.25;;;;;;;;5054547;28;45397;-66
2021/12/26 05:47:49;;;;;;;;;25.00;25.00;;;;;;;;5053683;28;45516;-66
2021/12/26 05:50:16;;;;;;;;;27.00;24.50;;;;;;;;5035052;28;45412;-66
2021/12/26 05:52:41;;;;;;;;;20.50;20.50;;;;;;;;5052640;28;45467;-66
2021/12/26 05:55:07;;;;;;;;;27.25;24.50;;;;;;;;5052305;28;46320;-65
2021/12/26 05:57:33;;;;;;;;;28.25;20.75;;;;;;;;5053426;28;45416;-66
2021/12/26 05:59:58;;;;;;;;;22.00;20.25;;;;;;;;5034809;28;45345;-66
2021/12/26 06:02:23;;;;;;;;;20.75;19.75;;;;;;;;5053792;28;45590;-66
2021/12/26 06:04:49;;;;;;;;;22.50;20.75;;;;;;;;5053199;28;46057;-66
2021/12/26 06:07:14;;;;;;;;;22.50;21.75;;;;;;;;5034010;28;45402;-66
2021/12/26 06:09:39;;;;;;;;;19.25;19.25;;;;;;;;5032957;28;45470;-66
2021/12/26 06:12:05;;;;;;;;;18.50;16.50;;;;;;;;5053648;28;45584;-66
2021/12/26 06:14:30;;;;;;;;;22.50;20.75;;;;;;;;5055904;28;46146;-65
2021/12/26 06:16:55;;;;;;;;;21.00;20.50;;;;;;;;5052292;28;45977;-67
2021/12/26 06:19:20;;;;;;;;;20.75;19.25;;;;;;;;5033328;28;45556;-66
2021/12/26 06:21:46;;;;;;;;;20.25;17.25;;;;;;;;4981736;28;1377626;-66
2021/12/26 06:24:11;;;;;;;;;14.75;12.50;;;;;;;;5031866;28;47575;-66
2021/12/26 06:26:37;;;;;;;;;17.75;16.00;;;;;;;;5033443;28;47809;-66
2021/12/26 06:29:02;;;;;;;;;21.25;15.25;;;;;;;;5032827;28;45582;-66
2021/12/26 06:31:28;;;;;;;;;19.75;17.25;;;;;;;;5031647;28;45549;-66
2021/12/26 06:33:53;;;;;;;;;18.00;15.75;;;;;;;;5031081;28;47287;-71
2021/12/26 06:36:18;;;;;;;;;19.50;17.25;;;;;;;;5032685;28;45571;-72
2021/12/26 06:38:46;;;;;;;;;18.75;18.50;;;;;;;;5030953;28;45689;-70
2021/12/26 06:41:12;;;;;;;;;22.50;19.50;;;;;;;;5030246;28;45610;-71
2021/12/26 06:43:39;;;;;;;;;16.75;16.00;;;;;;;;5033184;28;45465;-70
2021/12/26 06:46:04;;;;;;;;;15.50;15.25;;;;;;;;5032422;28;45449;-70
2021/12/26 06:48:29;;;;;;;;;19.50;19.00;;;;;;;;5034671;28;45449;-70
2021/12/26 06:50:55;;;;;;;;;17.00;15.00;;;;;;;;5033662;28;45486;-71
2021/12/26 06:53:20;;;;;;;;;14.75;14.75;;;;;;;;5033792;28;45464;-72
2021/12/26 06:55:46;;;;;;;;;11.25;11.25;;;;;;;;5034129;28;45815;-72
2021/12/26 06:58:12;;;;;;;;;14.50;13.75;;;;;;;;5033646;28;45512;-71
2021/12/26 07:00:37;;;;;;;;;13.75;13.75;;;;;;;;5033117;28;45478;-70
2021/12/26 07:03:02;;;;;;;;;18.75;15.25;;;;;;;;5033989;28;45485;-67
2021/12/26 07:05:28;;;;;;;;;16.00;13.75;;;;;;;;5033128;28;45420;-67
2021/12/26 07:07:53;;;;;;;;;13.50;12.50;;;;;;;;5034151;28;45385;-66
2021/12/26 07:10:18;;;;;;;;;15.00;13.00;;;;;;;;5034087;28;45520;-67
2021/12/26 07:12:44;;;;;;;;;16.25;14.75;;;;;;;;5031826;28;47552;-67
2021/12/26 07:15:10;;;;;;;;;15.50;12.50;;;;;;;;5033827;28;45516;-67
2021/12/26 07:17:35;;;;;;;;;14.50;13.25;;;;;;;;5031966;28;45334;-67
2021/12/26 07:20:00;;;;;;;;;14.00;12.75;;;;;;;;5034330;28;47505;-67
2021/12/26 07:22:26;;;;;;;;;16.50;14.00;;;;;;;;5034660;28;47604;-67
2021/12/26 07:24:51;;;;;;;;;14.00;11.75;;;;;;;;5034701;28;45600;-66
2021/12/26 07:27:16;;;;;;;;;11.50;11.50;;;;;;;;5035850;28;45440;-66
2021/12/26 07:29:42;;;;;;;;;12.75;12.75;;;;;;;;5034514;28;45533;-67
2021/12/26 07:32:08;;;;;;;;;12.00;12.00;;;;;;;;5052172;28;46461;-68
2021/12/26 07:34:34;;;;;;;;;13.50;13.50;;;;;;;;5067750;28;45554;-68
2021/12/26 07:36:59;;;;;;;;;15.00;13.25;;;;;;;;5035201;28;45478;-68
2021/12/26 07:39:25;;;;;;;;;13.25;13.25;;;;;;;;5053368;28;45422;-67
2021/12/26 07:41:50;;;;;;;;;14.00;13.50;;;;;;;;5053237;28;45514;-67
2021/12/26 07:44:15;;;;;;;;;12.50;10.25;;;;;;;;5030432;28;45517;-67
2021/12/26 07:46:40;;;;;;;;;11.50;11.00;;;;;;;;5051128;28;45536;-68
2021/12/26 07:49:05;;;;;;;;;10.75;10.75;;;;;;;;5053226;28;45402;-69
2021/12/26 07:51:31;;;;;;;;;13.25;12.00;;;;;;;;5035028;28;47932;-68
2021/12/26 07:54:00;;;;;;;;;14.25;13.25;;;;;;;;5053125;28;45566;-67
2021/12/26 07:56:25;;;;;;;;;13.75;13.00;;;;;;;;5052741;28;45599;-67
2021/12/26 07:58:51;;;;;;;;;15.00;13.25;;;;;;;;5034723;28;45326;-68
2021/12/26 08:01:16;;;;;;;;;15.00;15.00;;;;;;;;5034450;28;47679;-68
2021/12/26 08:03:41;;;;;;;;;13.00;13.00;;;;;;;;5052816;28;45399;-68
2021/12/26 08:06:07;;;;;;;;;12.25;12.25;;;;;;;;5034405;28;45412;-67
2021/12/26 08:08:32;;;;;;;;;13.25;11.00;;;;;;;;5037247;28;45945;-67
2021/12/26 08:10:58;;;;;;;;;14.00;12.75;;;;;;;;5067971;28;48424;-67
2021/12/26 08:13:23;;;;;;;;;16.50;16.50;;;;;;;;5052818;28;45412;-65
2021/12/26 08:15:48;;;;;;;;;15.00;15.00;;;;;;;;5034608;28;45842;-66
2021/12/26 08:18:13;;;;;;;;;15.00;15.00;;;;;;;;5035429;28;45427;-67
2021/12/26 08:20:38;;;;;;;;;13.00;11.00;;;;;;;;5030162;28;47418;-68
2021/12/26 08:23:04;;;;;;;;;14.00;13.25;;;;;;;;5032153;28;45509;-66
2021/12/26 08:25:29;;;;;;;;;13.00;12.00;;;;;;;;5030609;28;45584;-66
2021/12/26 08:27:55;;;;;;;;;11.50;11.50;;;;;;;;5031430;28;45378;-67
2021/12/26 08:30:20;;;;;;;;;14.25;14.25;;;;;;;;5031731;28;47358;-66
2021/12/26 08:32:50;;;;;;;;;13.75;13.25;;;;;;;;5032422;28;45570;-67
2021/12/26 08:35:15;;;;;;;;;12.50;12.50;;;;;;;;5030877;28;45944;-67
2021/12/26 08:37:41;;;;;;;;;17.50;15.00;;;;;;;;5030777;28;45426;-67
2021/12/26 08:40:07;;;;;;;;;11.00;11.00;;;;;;;;5029898;28;46009;-67
2021/12/26 08:42:32;;;;;;;;;13.00;13.00;;;;;;;;5032149;28;45330;-67
2021/12/26 08:44:59;;;;;;;;;15.75;14.25;;;;;;;;5031341;28;45438;-67
2021/12/26 08:47:25;;;;;;;;;16.00;13.75;;;;;;;;5032237;28;45499;-66
2021/12/26 08:49:50;;;;;;;;;18.00;15.50;;;;;;;;5031994;28;46249;-65
2021/12/26 08:52:15;;;;;;;;;12.25;11.75;;;;;;;;5030237;28;45479;-65
2021/12/26 08:54:40;;;;;;;;;13.50;11.50;;;;;;;;5030463;28;45421;-65
2021/12/26 08:57:07;;;;;;;;;13.50;13.50;;;;;;;;5032882;28;45456;-64
2021/12/26 08:59:33;;;;;;;;;19.25;16.00;;;;;;;;5030394;28;46692;-67
2021/12/26 09:01:59;;;;;;;;;16.75;15.25;;;;;;;;5030314;28;46508;-66
2021/12/26 09:04:24;;;;;;;;;19.00;18.00;;;;;;;;5030974;28;45564;-65
2021/12/26 09:06:49;;;;;;;;;17.25;14.50;;;;;;;;5031961;28;46066;-66
2021/12/26 09:09:15;;;;;;;;;15.25;13.00;;;;;;;;5030887;28;47504;-67
2021/12/26 09:11:40;;;;;;;;;16.75;15.25;;;;;;;;5030262;28;45629;-67
2021/12/26 09:14:05;;;;;;;;;15.50;13.50;;;;;;;;5033374;28;45374;-66
2021/12/26 09:16:33;;;;;;;;;15.50;15.00;;;;;;;;5034274;28;45559;-64
2021/12/26 09:18:59;;;;;;;;;15.25;12.75;;;;;;;;5033664;28;46747;-66
2021/12/26 09:21:24;;;;;;;;;14.00;13.00;;;;;;;;5049885;28;45417;-66
2021/12/26 09:23:50;;;;;;;;;11.00;11.00;;;;;;;;5055426;28;45419;-67
2021/12/26 09:26:15;;;;;;;;;13.50;13.00;;;;;;;;5055229;28;45999;-66
2021/12/26 09:28:40;;;;;;;;;12.00;12.00;;;;;;;;5036370;28;47692;-65
2021/12/26 09:31:05;;;;;;;;;6.75;6.75;;;;;;;;5054119;28;45504;-65
2021/12/26 09:33:30;;;;;;;;;10.50;10.50;;;;;;;;5036942;28;45849;-64
2021/12/26 09:35:56;;;;;;;;;11.75;11.75;;;;;;;;5055602;28;45571;-66
2021/12/26 09:38:21;;;;;;;;;12.50;10.75;;;;;;;;5054970;28;45552;-66
2021/12/26 09:40:46;;;;;;;;;11.50;9.75;;;;;;;;5055066;28;45394;-66
2021/12/26 09:43:12;;;;;;;;;13.00;11.25;;;;;;;;5036550;28;45485;-66
2021/12/26 09:45:38;;;;;;;;;11.00;11.00;;;;;;;;5037127;28;45892;-67
2021/12/26 09:48:03;;;;;;;;;16.25;13.50;;;;;;;;5054532;28;45461;-67
2021/12/26 09:50:28;;;;;;;;;11.75;11.75;;;;;;;;5054563;28;45892;-66
2021/12/26 09:52:54;;;;;;;;;11.75;11.75;;;;;;;;5054502;28;45302;-66
2021/12/26 09:55:19;;;;;;;;;13.50;11.50;;;;;;;;5036481;28;45515;-66
2021/12/26 09:57:44;;;;;;;;;11.50;10.25;;;;;;;;5036576;28;48511;-66
2021/12/26 10:00:19;;;;;;;;;15.25;14.25;;;;;;;;5055690;28;45369;-65
2021/12/26 10:02:44;;;;;;;;;10.75;10.75;;;;;;;;5052777;28;45607;-67
2021/12/26 10:05:09;;;;;;;;;11.75;9.75;;;;;;;;5054178;28;45368;-64
2021/12/26 10:07:35;;;;;;;;;9.25;9.25;;;;;;;;5036552;28;47522;-67
2021/12/26 10:10:04;;;;;;;;;11.25;10.00;;;;;;;;5070629;28;45442;-66
2021/12/26 10:12:37;;;;;;;;;11.00;10.00;;;;;;;;5055279;28;45383;-66
2021/12/26 10:15:03;;;;;;;;;7.25;6.25;;;;;;;;5019341;28;64110;-66
2021/12/26 10:17:28;;;;;;;;;8.50;8.50;;;;;;;;5036060;28;48553;-66
2021/12/26 10:20:00;;;;;;;;;8.00;8.00;;;;;;;;5054655;28;45568;-67
2021/12/26 10:22:26;;;;;;;;;12.00;10.00;;;;;;;;5054592;28;45363;-66
2021/12/26 10:24:52;;;;;;;;;8.00;7.00;;;;;;;;5053437;28;45411;-67
2021/12/26 10:27:21;;;;;;;;;11.25;8.75;;;;;;;;5055215;28;45443;-66
2021/12/26 10:29:51;;;;;;;;;11.75;11.25;;;;;;;;5036714;28;45509;-66
2021/12/26 10:32:20;;;;;;;;;11.75;9.25;;;;;;;;5054507;28;46006;-67
2021/12/26 10:34:46;;;;;;;;;11.50;7.75;;;;;;;;5068785;28;45511;-67
2021/12/26 10:37:50;;;;;;;;;9.25;9.25;;;;;;;;5036037;28;49717;-67
2021/12/26 10:40:21;;;;;;;;;10.25;10.25;;;;;;;;4956168;28;45458;-66
2021/12/26 10:42:48;;;;;;;;;9.25;9.25;;;;;;;;4956577;28;45535;-67
2021/12/26 10:45:15;;;;;;;;;13.00;11.00;;;;;;;;4969083;28;45412;-67
2021/12/26 10:47:41;;;;;;;;;12.75;10.00;;;;;;;;4962148;28;47891;-66
2021/12/26 10:50:07;;;;;;;;;13.25;12.00;;;;;;;;4968125;28;45468;-67
2021/12/26 10:52:34;;;;;;;;;16.25;13.75;;;;;;;;4956803;28;45618;-66
2021/12/26 10:55:04;;;;;;;;;12.50;12.50;;;;;;;;4977923;28;45537;-66
2021/12/26 10:57:33;;;;;;;;;11.25;10.50;;;;;;;;4985582;28;46761;-66
2021/12/26 11:00:17;;;;;;;;;10.50;10.50;;;;;;;;4955897;28;45400;-66
2021/12/26 11:02:45;;;;;;;;;15.00;15.00;;;;;;;;4950116;28;45941;-67
2021/12/26 11:05:15;;;;;;;;;10.75;9.75;;;;;;;;4951039;28;45559;-67
2021/12/26 11:07:42;;;;;;;;;11.50;11.50;;;;;;;;4965645;28;45496;-66
2021/12/26 11:10:10;;;;;;;;;13.00;9.50;;;;;;;;4962144;28;45556;-65
2021/12/26 11:12:37;;;;;;;;;8.75;8.75;;;;;;;;5033711;28;45492;-65
2021/12/26 11:15:03;;;;;;;;;7.25;7.25;;;;;;;;5051725;28;45608;-67
2021/12/26 11:17:29;;;;;;;;;9.75;8.75;;;;;;;;5034742;28;45455;-68
2021/12/26 11:19:54;;;;;;;;;8.00;8.00;;;;;;;;5034665;28;45457;-67
2021/12/26 11:22:20;;;;;;;;;10.00;10.00;;;;;;;;5035382;28;45489;-67
2021/12/26 11:24:46;;;;;;;;;11.00;10.50;;;;;;;;5034695;28;45351;-68
2021/12/26 11:27:11;;;;;;;;;10.00;9.75;;;;;;;;5035672;28;47109;-67
2021/12/26 11:29:36;;;;;;;;;10.75;9.75;;;;;;;;5035127;28;45548;-67
2021/12/26 11:32:02;;;;;;;;;9.75;6.75;;;;;;;;5053461;28;45520;-67
2021/12/26 11:34:30;;;;;;;;;9.50;7.75;;;;;;;;5035623;28;45421;-69
2021/12/26 11:36:57;;;;;;;;;12.25;8.25;;;;;;;;5039249;28;45629;-68
2021/12/26 11:39:22;;;;;;;;;11.75;9.25;;;;;;;;5035989;28;45410;-67
2021/12/26 11:42:07;;;;;;;;;8.00;8.00;;;;;;;;5053131;28;45470;-70
2021/12/26 11:45:05;;;;;;;;;6.00;6.00;;;;;;;;5053138;28;45493;-67
2021/12/26 11:47:46;;;;;;;;;6.25;6.00;;;;;;;;5030695;28;48169;-68
2021/12/26 11:50:14;;;;;;;;;6.25;6.25;;;;;;;;5046490;28;45414;-68
2021/12/26 11:52:58;;;;;;;;;5.75;5.75;;;;;;;;5046844;28;45416;-68
2021/12/26 11:55:23;;;;;;;;;6.50;5.50;;;;;;;;5049210;28;45496;-71
2021/12/26 11:58:02;;;;;;;;;10.50;10.00;;;;;;;;5047745;28;45541;-68
2021/12/26 12:00:34;;;;;;;;;11.00;10.50;;;;;;;;5042805;28;45422;-70
2021/12/26 12:03:00;;;;;;;;;21.00;18.00;;;;;;;;5053692;28;45461;-71
2021/12/26 12:05:38;;;;;;;;;30.00;29.75;;;;;;;;5048684;28;45493;-69
2021/12/26 12:08:03;;;;;;;;;14.50;10.00;;;;;;;;5047000;28;46567;-70
2021/12/26 12:10:41;;;;;;;;;11.25;10.25;;;;;;;;5074957;27;45520;-67
2021/12/26 12:13:07;;;;;;;;;9.75;9.75;;;;;;;;5036014;28;45561;-67
2021/12/26 12:15:46;;;;;;;;;9.25;7.75;;;;;;;;5042851;28;45591;-67
2021/12/26 12:18:14;;;;;;;;;9.33;7.00;;;;;;;;5050957;28;45735;-68
2021/12/26 12:20:39;;;;;;;;;8.75;8.25;;;;;;;;5032199;28;46257;-68
2021/12/26 12:23:06;;;;;;;;;7.50;7.50;;;;;;;;5038501;28;45432;-68
2021/12/26 12:25:41;;;;;;;;;6.50;6.50;;;;;;;;5033512;28;45639;-69
2021/12/26 12:28:11;;;;;;;;;11.25;9.75;;;;;;;;5057608;28;46509;-66
2021/12/26 12:30:38;;;;;;;;;7.25;7.25;;;;;;;;5034260;28;46140;-67
2021/12/26 12:33:18;;;;;;;;;5.67;5.67;;;;;;;;5037075;28;45493;-68
2021/12/26 12:36:09;;;;;;;;;6.67;6.67;;;;;;;;5050684;28;45587;-68
2021/12/26 12:38:35;;;;;;;;;4.00;4.00;;;;;;;;5040535;28;45558;-67
2021/12/26 12:41:01;;;;;;;;;5.75;5.75;;;;;;;;5071532;27;46083;-67
2021/12/26 12:43:27;;;;;;;;;6.67;6.00;;;;;;;;5049821;28;46035;-68
2021/12/26 12:45:57;;;;;;;;;8.00;5.00;;;;;;;;5058502;28;45557;-68
2021/12/26 12:48:24;;;;;;;;;4.67;4.67;;;;;;;;5054344;28;46381;-67
2021/12/26 12:50:55;;;;;;;;;5.00;5.00;;;;;;;;5057636;28;45560;-68
2021/12/26 12:53:42;;;;;;;;;1.67;1.67;;;;;;;;5073837;27;45549;-67
2021/12/26 12:56:30;;;;;;;;;3.33;3.33;;;;;;;;5053098;28;45471;-66
2021/12/26 12:59:19;;;;;;;;;3.00;3.00;;;;;;;;5053754;28;45779;-68
2021/12/26 13:01:50;;;;;;;;;5.00;5.00;;;;;;;;5046376;28;45512;-68
2021/12/26 13:04:16;;;;;;;;;3.33;3.33;;;;;;;;5060403;27;45491;-66
2021/12/26 13:06:51;;;;;;;;;4.67;3.00;;;;;;;;5036556;28;45470;-67
2021/12/26 13:09:16;;;;;;;;;2.00;2.00;;;;;;;;5060749;28;47886;-66
2021/12/26 13:11:42;;;;;;;;;4.00;2.67;;;;;;;;5036508;28;45691;-66
2021/12/26 13:14:08;;;;;;;;;2.00;2.00;;;;;;;;5052279;28;45497;-67
2021/12/26 13:16:33;;;;;;;;;5.00;3.00;;;;;;;;5045590;28;45572;-67
2021/12/26 13:19:08;;;;;;;;;3.00;2.33;;;;;;;;5034996;28;48531;-66
2021/12/26 13:21:34;;;;;;;;;2.00;2.00;;;;;;;;5054058;28;45370;-66
2021/12/26 13:23:59;;;;;;;;;1.00;1.00;;;;;;;;5049549;28;45538;-67
2021/12/26 13:26:24;;;;;;;;;2.67;2.00;;;;;;;;5049291;28;45463;-66
2021/12/26 13:28:50;;;;;;;;;2.00;2.00;;;;;;;;5060289;28;45648;-66
2021/12/26 13:31:23;;;;;;;;;2.00;2.00;;;;;;;;5051012;28;45445;-67
2021/12/26 13:33:53;;;;;;;;;3.00;1.00;;;;;;;;5044519;28;45568;-67
2021/12/26 13:36:21;;;;;;;;;3.00;3.00;;;;;;;;5055717;28;45410;-67
2021/12/26 13:38:47;;;;;;;;;1.00;1.00;;;;;;;;5054768;28;46412;-68
2021/12/26 13:41:13;;;;;;;;;1.33;1.33;;;;;;;;5040018;28;45875;-67
2021/12/26 13:43:39;;;;;;;;;2.00;1.00;;;;;;;;5036720;28;45545;-67
2021/12/26 13:46:05;;;;;;;;;2.00;2.00;;;;;;;;5044750;28;45506;-65
2021/12/26 13:48:35;;;;;;;;;1.67;1.67;;;;;;;;5036413;28;47731;-67
2021/12/26 13:51:18;;;;;;;;;2.00;1.00;;;;;;;;5040030;27;45826;-67
2021/12/26 13:53:43;;;;;;;;;4.00;4.00;;;;;;;;5054120;28;45497;-67
2021/12/26 13:56:09;;;;;;;;;2.00;2.00;;;;;;;;5051989;28;45333;-66
2021/12/26 13:58:37;;;;;;;;;2.00;2.00;;;;;;;;5059914;27;45754;-67
2021/12/26 14:01:03;;;;;;;;;3.00;2.00;;;;;;;;5046315;28;45508;-66
2021/12/26 14:03:28;;;;;;;;;3.33;1.67;;;;;;;;5050021;28;45553;-66
2021/12/26 14:05:53;;;;;;;;;1.67;1.67;;;;;;;;5053929;28;45561;-67
2021/12/26 14:08:21;;;;;;;;;2.00;2.00;;;;;;;;5036389;28;48287;-66
2021/12/26 14:11:06;;;;;;;;;2.00;2.00;;;;;;;;5036190;28;45545;-66
2021/12/26 14:13:43;;;;;;;;;2.67;2.67;;;;;;;;5034762;28;45725;-66
2021/12/26 14:16:10;;;;;;;;;3.33;3.00;;;;;;;;5059319;28;45473;-67
2021/12/26 14:18:37;;;;;;;;;2.00;2.00;;;;;;;;5029100;28;48139;-66
2021/12/26 14:21:03;;;;;;;;;3.67;2.33;;;;;;;;5037788;28;45776;-65
2021/12/26 14:23:42;;;;;;;;;2.67;2.00;;;;;;;;5040468;28;45627;-66
2021/12/26 14:26:15;;;;;;;;;0.67;0.00;;;;;;;;5057248;28;45437;-65